Time;durP1;ratioP1;P1;durP2;ratioP2;P2;SDS_P1;SDS_P2;PMS_P1;PMS_P2;Temp;Humidity;BMP_temperature;BMP_pressure;BME280_temperature;BME280_humidity;BME280_pressure;Samples;Min_cycle;Max_cycle;Signal;HPM_P1;HPM_P2
2023/03/22 00:01:39;;;;;;;;;59.00;47.00;;;;;7.07;100.00;98342.44;4859089;28;103923;-69
2023/03/22 00:04:06;;;;;;;;;50.50;39.00;;;;;7.08;100.00;98333.34;4836396;28;102119;-70
2023/03/22 00:06:33;;;;;;;;;47.75;38.00;;;;;7.12;100.00;98334.66;4858946;28;101934;-70
2023/03/22 00:09:00;;;;;;;;;30.75;26.75;;;;;7.12;100.00;98335.50;4876964;28;102348;-70
2023/03/22 00:11:27;;;;;;;;;27.25;23.75;;;;;7.13;100.00;98334.47;4901075;28;103999;-71
2023/03/22 00:13:55;;;;;;;;;22.75;20.75;;;;;7.10;100.00;98340.25;4887998;28;102054;-70
2023/03/22 00:16:22;;;;;;;;;14.00;13.25;;;;;7.06;100.00;98341.63;4873700;28;102673;-70
2023/03/22 00:18:49;;;;;;;;;19.00;16.25;;;;;7.04;100.00;98337.44;4896182;28;102415;-70
2023/03/22 00:21:17;;;;;;;;;19.75;16.50;;;;;7.03;100.00;98336.59;4883854;28;104303;-70
2023/03/22 00:23:44;;;;;;;;;16.00;16.00;;;;;6.99;100.00;98329.94;4874656;28;103373;-70
2023/03/22 00:26:13;;;;;;;;;19.25;15.25;;;;;6.94;99.73;98334.19;4880330;28;102257;-70
2023/03/22 00:28:41;;;;;;;;;14.50;12.75;;;;;6.88;99.76;98337.63;4888712;28;102030;-70
2023/03/22 00:31:09;;;;;;;;;16.25;14.75;;;;;6.82;99.60;98333.81;4877764;28;103998;-70
2023/03/22 00:33:36;;;;;;;;;9.25;5.50;;;;;6.75;99.77;98332.91;4881716;28;102115;-70
2023/03/22 00:36:06;;;;;;;;;20.50;16.75;;;;;6.68;99.72;98326.56;4906254;28;102469;-70
2023/03/22 00:38:37;;;;;;;;;6.50;4.00;;;;;6.61;100.00;98328.34;4889143;28;102016;-71
2023/03/22 00:41:13;;;;;;;;;19.25;16.25;;;;;6.54;99.98;98322.00;4882793;28;104085;-70
2023/03/22 00:43:41;;;;;;;;;14.00;13.50;;;;;6.47;100.00;98324.59;4884059;28;103068;-70
2023/03/22 00:46:10;;;;;;;;;19.75;16.00;;;;;6.33;100.00;98325.41;4882884;28;102686;-69
2023/03/22 00:48:37;;;;;;;;;32.25;26.75;;;;;6.25;100.00;98326.31;4873510;28;102356;-69
2023/03/22 00:51:05;;;;;;;;;51.00;40.50;;;;;6.12;100.00;98314.50;4878747;28;103679;-69
2023/03/22 00:53:35;;;;;;;;;64.33;47.67;;;;;5.99;100.00;98314.28;4886409;28;102108;-69
2023/03/22 00:56:03;;;;;;;;;54.25;41.00;;;;;5.91;100.00;98317.81;4881619;28;102684;-70
2023/03/22 00:58:31;;;;;;;;;67.67;48.00;;;;;5.68;100.00;98322.31;4889298;28;102154;-70
2023/03/22 01:00:58;;;;;;;;;62.25;46.75;;;;;5.62;100.00;98307.78;4875977;28;102698;-70
2023/03/22 01:03:25;;;;;;;;;57.50;41.75;;;;;5.56;100.00;98323.72;4881933;28;106070;-70
2023/03/22 01:05:55;;;;;;;;;54.25;38.25;;;;;5.45;100.00;98316.09;4867416;28;102369;-70
2023/03/22 01:08:31;;;;;;;;;38.25;34.00;;;;;5.43;100.00;98312.75;4880477;28;102596;-70
2023/03/22 01:11:26;;;;;;;;;20.75;18.00;;;;;5.37;100.00;98312.44;4880257;28;107450;-70
2023/03/22 01:14:16;;;;;;;;;21.00;18.25;;;;;5.23;100.00;98299.75;4886190;28;102371;-69
2023/03/22 01:17:07;;;;;;;;;30.00;24.00;;;;;5.07;100.00;98318.59;4881291;28;102443;-69
2023/03/22 01:19:50;;;;;;;;;37.75;34.00;;;;;4.97;100.00;98317.97;4851685;28;102364;-70
2023/03/22 01:22:26;;;;;;;;;25.00;24.75;;;;;4.97;100.00;98307.25;4873099;28;107728;-70
2023/03/22 01:24:53;;;;;;;;;28.75;24.25;;;;;4.95;100.00;98303.91;4886168;28;103516;-69
2023/03/22 01:27:20;;;;;;;;;37.00;32.25;;;;;4.82;100.00;98284.84;4897778;28;103263;-69
2023/03/22 01:29:47;;;;;;;;;54.50;42.25;;;;;4.84;100.00;98299.75;4879976;28;102296;-69
2023/03/22 01:32:14;;;;;;;;;57.00;40.33;;;;;4.80;100.00;98294.91;4882767;28;104027;-69
2023/03/22 01:34:41;;;;;;;;;44.75;36.25;;;;;4.71;100.00;98294.09;4885971;28;102325;-69
2023/03/22 01:37:08;;;;;;;;;38.25;28.75;;;;;4.61;100.00;98301.47;4882967;28;102489;-69
2023/03/22 01:39:35;;;;;;;;;70.00;49.00;;;;;4.35;100.00;98291.00;4880093;28;104268;-69
2023/03/22 01:42:02;;;;;;;;;61.33;45.67;;;;;4.26;100.00;98285.81;4876756;28;103551;-69
2023/03/22 01:44:30;;;;;;;;;75.00;57.00;;;;;4.17;100.00;98279.66;4879302;28;102500;-69
2023/03/22 01:46:58;;;;;;;;;73.00;55.00;;;;;4.06;100.00;98279.97;4885407;28;102569;-69
2023/03/22 01:49:34;;;;;;;;;71.33;52.00;;;;;3.93;100.00;98274.28;4886465;28;102687;-69
2023/03/22 01:52:14;;;;;;;;;89.33;63.67;;;;;3.93;100.00;98272.47;4883706;28;108653;-69
2023/03/22 01:54:44;;;;;;;;;87.00;64.33;;;;;3.92;100.00;98264.59;4878620;28;103432;-69
2023/03/22 01:57:12;;;;;;;;;87.33;62.00;;;;;3.90;100.00;98264.78;4888400;28;102509;-69
2023/03/22 01:59:41;;;;;;;;;81.67;58.33;;;;;3.74;100.00;98242.56;4884511;28;102339;-70
2023/03/22 02:02:09;;;;;;;;;76.33;55.33;;;;;3.80;100.00;98268.59;4879082;28;104132;-68
2023/03/22 02:04:38;;;;;;;;;21.00;1.00;;;;;3.66;100.00;98255.91;4872994;28;104406;-69
2023/03/22 02:07:09;;;;;;;;;75.00;53.67;;;;;3.73;100.00;98267.63;4880497;28;103053;-69
2023/03/22 02:09:45;;;;;;;;;67.67;50.67;;;;;3.73;100.00;98271.13;4877528;28;103467;-69
2023/03/22 02:12:41;;;;;;;;;55.33;42.00;;;;;3.73;100.00;98268.47;4879715;28;103225;-69
2023/03/22 02:15:47;;;;;;;;;68.33;49.33;;;;;3.68;100.00;98260.09;4872482;28;104182;-69
2023/03/22 02:18:49;;;;;;;;;52.33;42.33;;;;;3.73;100.00;98265.78;4873499;28;102881;-69
2023/03/22 02:21:51;;;;;;;;;38.00;27.75;;;;;3.47;100.00;98227.63;4877418;28;102780;-69
2023/03/22 02:25:05;;;;;;;;;25.75;21.00;;;;;3.69;100.00;98267.13;4884492;28;107063;-68
2023/03/22 02:28:06;;;;;;;;;21.00;14.50;;;;;3.60;100.00;98255.56;4872498;28;102584;-69
2023/03/22 02:31:04;;;;;;;;;19.75;17.00;;;;;3.53;100.00;98251.03;4882844;28;102137;-69
2023/03/22 02:33:55;;;;;;;;;22.25;18.00;;;;;3.44;100.00;98247.53;4879501;28;102362;-69
2023/03/22 02:36:54;;;;;;;;;12.75;11.75;;;;;3.33;100.00;98245.16;4889558;28;108656;-70
2023/03/22 02:39:49;;;;;;;;;20.25;16.25;;;;;3.26;100.00;98240.63;4882522;28;102608;-70
2023/03/22 02:42:22;;;;;;;;;17.00;13.00;;;;;3.18;100.00;98225.44;4879025;28;102447;-69
2023/03/22 02:45:00;;;;;;;;;21.25;18.00;;;;;3.18;100.00;98230.78;4883002;28;103088;-69
2023/03/22 02:47:37;;;;;;;;;20.00;19.25;;;;;3.19;100.00;98232.47;4881783;28;109579;-69
2023/03/22 02:50:14;;;;;;;;;15.75;11.50;;;;;3.12;100.00;98226.94;4876882;28;102206;-70
2023/03/22 02:52:46;;;;;;;;;32.75;26.25;;;;;3.02;100.00;98225.38;4883812;28;102283;-70
2023/03/22 02:55:30;;;;;;;;;68.67;49.67;;;;;2.82;100.00;98232.00;4878655;28;102265;-70
2023/03/22 02:58:05;;;;;;;;;71.67;56.00;;;;;2.61;100.00;98227.91;4889164;28;107778;-70
2023/03/22 03:00:35;;;;;;;;;69.67;52.00;;;;;2.55;100.00;98227.72;4881062;28;102322;-70
2023/03/22 03:03:10;;;;;;;;;59.67;47.00;;;;;2.56;100.00;98227.59;4883787;28;103759;-69
2023/03/22 03:05:42;;;;;;;;;57.33;43.00;;;;;2.53;100.00;98211.03;4883737;28;104504;-69
2023/03/22 03:08:12;;;;;;;;;61.67;48.00;;;;;2.58;100.00;98228.25;4873119;28;104281;-69
2023/03/22 03:10:40;;;;;;;;;77.67;56.00;;;;;2.53;100.00;98233.22;4883219;28;102897;-69
2023/03/22 03:13:16;;;;;;;;;77.33;58.00;;;;;2.48;100.00;98222.19;4888195;28;101835;-69
2023/03/22 03:15:48;;;;;;;;;66.33;53.00;;;;;2.70;100.00;98242.16;4898365;28;102901;-69
2023/03/22 03:18:37;;;;;;;;;55.33;43.00;;;;;2.79;100.00;98235.84;4879370;28;104057;-69
2023/03/22 03:21:19;;;;;;;;;48.67;40.33;;;;;2.76;100.00;98235.31;4881852;28;102152;-69
2023/03/22 03:24:04;;;;;;;;;66.33;45.00;;;;;2.59;100.00;98229.91;4879471;28;102116;-69
2023/03/22 03:26:50;;;;;;;;;65.00;50.33;;;;;2.40;100.00;98240.81;4891286;28;102386;-69
2023/03/22 03:29:44;;;;;;;;;67.33;52.33;;;;;2.28;100.00;98231.44;4876612;28;103994;-69
2023/03/22 03:32:20;;;;;;;;;79.33;54.00;;;;;2.10;100.00;98249.31;4882670;28;102574;-68
2023/03/22 03:35:21;;;;;;;;;72.33;54.00;;;;;1.99;100.00;98249.56;4880197;28;102143;-69
2023/03/22 03:38:07;;;;;;;;;76.67;53.67;;;;;2.00;100.00;98243.25;4873097;28;104402;-68
2023/03/22 03:40:46;;;;;;;;;70.00;52.00;;;;;2.21;100.00;98257.03;4883357;28;108562;-70
2023/03/22 03:43:15;;;;;;;;;66.00;49.33;;;;;2.29;100.00;98249.13;4879786;28;102247;-69
2023/03/22 03:45:43;;;;;;;;;32.00;26.00;;;;;2.41;100.00;98261.19;4868298;28;104483;-69
2023/03/22 03:48:17;;;;;;;;;39.00;26.33;;;;;2.50;100.00;98262.91;4872408;28;102435;-69
2023/03/22 03:50:49;;;;;;;;;22.75;18.00;;;;;2.59;100.00;98251.28;4874632;28;104349;-69
2023/03/22 03:53:16;;;;;;;;;18.75;14.75;;;;;2.66;100.00;98257.63;4867974;28;102063;-70
2023/03/22 03:55:43;;;;;;;;;22.75;19.50;;;;;2.71;100.00;98257.16;4884432;28;102462;-69
2023/03/22 03:58:10;;;;;;;;;21.25;18.75;;;;;2.74;100.00;98259.53;4870707;28;102539;-70
2023/03/22 04:00:37;;;;;;;;;22.25;15.25;;;;;2.75;100.00;98265.69;4880899;28;104180;-70
2023/03/22 04:03:05;;;;;;;;;34.00;24.67;;;;;2.74;100.00;98258.69;4874302;28;102435;-69
2023/03/22 04:05:32;;;;;;;;;36.00;26.67;;;;;2.79;100.00;98264.38;4874491;28;102467;-70
2023/03/22 04:07:59;;;;;;;;;27.75;22.00;;;;;2.89;100.00;98265.06;4884826;28;102456;-70
2023/03/22 04:10:26;;;;;;;;;21.75;19.75;;;;;2.97;100.00;98263.25;4892741;28;104003;-69
2023/03/22 04:12:54;;;;;;;;;28.50;26.50;;;;;3.05;100.00;98257.97;4879087;28;102009;-69
2023/03/22 04:15:21;;;;;;;;;26.75;23.00;;;;;3.09;100.00;98261.16;4880545;28;102408;-69
2023/03/22 04:17:48;;;;;;;;;70.00;51.00;;;;;2.92;100.00;98257.59;4888861;28;103222;-69
2023/03/22 04:20:15;;;;;;;;;69.00;52.33;;;;;2.89;100.00;98257.91;4877061;28;103031;-68
2023/03/22 04:22:43;;;;;;;;;58.33;48.67;;;;;2.95;100.00;98251.06;4884779;28;102488;-68
2023/03/22 04:25:12;;;;;;;;;62.00;45.00;;;;;3.02;100.00;98260.09;4881447;28;103123;-68
2023/03/22 04:27:41;;;;;;;;;54.67;40.67;;;;;3.09;100.00;98258.47;4883808;28;101939;-68
2023/03/22 04:30:19;;;;;;;;;38.00;32.50;;;;;3.20;100.00;98255.47;4881393;28;103998;-68
2023/03/22 04:32:47;;;;;;;;;34.33;28.67;;;;;3.31;100.00;98247.16;4882724;28;102406;-68
2023/03/22 04:35:15;;;;;;;;;23.50;19.25;;;;;3.31;100.00;98239.16;4885567;28;102076;-70
2023/03/22 04:37:42;;;;;;;;;30.25;24.75;;;;;3.42;100.00;98246.84;4881061;28;102318;-72
2023/03/22 04:40:15;;;;;;;;;22.00;19.50;;;;;3.48;100.00;98245.34;4882778;28;104058;-70
2023/03/22 04:42:44;;;;;;;;;21.50;17.25;;;;;3.54;100.00;98234.84;4875322;28;102491;-71
2023/03/22 04:45:12;;;;;;;;;20.50;16.25;;;;;3.59;100.00;98240.53;4874713;28;103087;-70
2023/03/22 04:47:39;;;;;;;;;12.50;11.50;;;;;3.58;100.00;98232.69;4882441;28;102277;-71
2023/03/22 04:50:08;;;;;;;;;45.33;31.00;;;;;3.50;100.00;98251.38;4875756;28;103827;-71
2023/03/22 04:52:35;;;;;;;;;95.75;69.25;;;;;3.47;100.00;98252.53;4880755;28;102248;-70
2023/03/22 04:55:02;;;;;;;;;89.25;64.00;;;;;3.53;100.00;98261.72;4874210;28;102429;-70
2023/03/22 04:57:29;;;;;;;;;84.33;63.00;;;;;3.55;100.00;98255.25;4880979;28;102564;-74
2023/03/22 04:59:56;;;;;;;;;71.00;53.00;;;;;3.62;100.00;98266.09;4879299;28;104065;-69
2023/03/22 05:02:23;;;;;;;;;74.33;57.33;;;;;3.64;100.00;98276.63;4864873;28;102407;-70
2023/03/22 05:04:51;;;;;;;;;86.67;61.67;;;;;3.61;100.00;98269.75;4807551;28;101916;-68
2023/03/22 05:07:21;;;;;;;;;87.33;63.00;;;;;3.52;100.00;98266.25;4827080;28;102292;-70
2023/03/22 05:09:54;;;;;;;;;56.33;40.00;;;;;3.48;100.00;98267.56;4867501;28;102621;-68
2023/03/22 05:12:21;;;;;;;;;60.33;46.00;;;;;3.53;100.00;98267.91;4830796;28;102196;-71
2023/03/22 05:14:48;;;;;;;;;53.33;41.33;;;;;3.64;100.00;98264.09;4899819;28;102080;-70
2023/03/22 05:17:15;;;;;;;;;41.25;30.25;;;;;3.72;100.00;98274.78;4881218;28;101906;-71
2023/03/22 05:19:42;;;;;;;;;32.50;26.00;;;;;3.76;100.00;98261.94;4886743;28;104007;-69
2023/03/22 05:22:10;;;;;;;;;39.67;36.67;;;;;3.90;100.00;98263.94;4879273;28;102026;-69
2023/03/22 05:24:44;;;;;;;;;35.00;26.75;;;;;4.01;100.00;98264.44;4829659;28;102213;-69
2023/03/22 05:27:29;;;;;;;;;20.00;16.50;;;;;4.12;100.00;98247.22;4724941;28;102435;-69
2023/03/22 05:29:57;;;;;;;;;17.25;14.75;;;;;4.24;100.00;98267.25;4877690;28;108541;-69
2023/03/22 05:32:24;;;;;;;;;16.75;14.00;;;;;4.36;100.00;98259.72;4881004;28;101934;-69
2023/03/22 05:34:51;;;;;;;;;17.50;16.00;;;;;4.46;100.00;98261.19;4888205;28;101905;-70
2023/03/22 05:37:19;;;;;;;;;14.50;12.50;;;;;4.59;100.00;98257.16;4893985;28;102572;-69
2023/03/22 05:39:46;;;;;;;;;7.00;5.00;;;;;4.70;100.00;98256.78;4872630;28;104408;-69
2023/03/22 05:42:13;;;;;;;;;13.25;11.75;;;;;4.78;100.00;98249.53;4883983;28;102293;-68
2023/03/22 05:44:40;;;;;;;;;18.00;11.75;;;;;4.84;100.00;98248.03;4884822;28;101985;-69
2023/03/22 05:47:07;;;;;;;;;23.75;22.25;;;;;4.91;100.00;98248.97;4891541;28;103350;-69
2023/03/22 05:49:35;;;;;;;;;23.25;18.00;;;;;5.04;100.00;98238.56;4878105;28;103631;-69
2023/03/22 05:52:04;;;;;;;;;19.50;15.50;;;;;5.15;100.00;98248.88;4887129;28;102363;-69
2023/03/22 05:54:31;;;;;;;;;11.75;9.25;;;;;5.25;100.00;98236.09;4877441;28;102357;-69
2023/03/22 05:56:59;;;;;;;;;23.50;18.00;;;;;5.32;100.00;98237.06;4885841;28;102268;-71
2023/03/22 05:59:26;;;;;;;;;42.25;32.75;;;;;5.28;100.00;98240.25;4886166;28;104296;-69
2023/03/22 06:01:53;;;;;;;;;44.75;33.25;;;;;5.31;100.00;98245.28;4877664;28;102995;-69
2023/03/22 06:04:21;;;;;;;;;44.75;36.00;;;;;5.35;100.00;98250.13;4893884;28;101988;-69
2023/03/22 06:06:49;;;;;;;;;54.50;39.00;;;;;5.39;100.00;98247.91;4885458;28;102111;-69
2023/03/22 06:09:16;;;;;;;;;34.75;27.50;;;;;5.53;100.00;98257.03;4884295;28;103340;-70
2023/03/22 06:11:44;;;;;;;;;31.25;27.75;;;;;5.63;100.00;98250.41;4879721;28;102363;-70
2023/03/22 06:14:11;;;;;;;;;19.75;19.00;;;;;5.78;100.00;98263.91;4878990;28;102375;-69
2023/03/22 06:16:38;;;;;;;;;17.00;12.25;;;;;5.90;100.00;98257.13;4876265;28;102182;-68
2023/03/22 06:19:05;;;;;;;;;15.25;12.00;;;;;6.04;100.00;98256.34;4881703;28;104095;-69
2023/03/22 06:21:32;;;;;;;;;23.00;20.25;;;;;6.22;100.00;98258.69;4888276;28;101992;-69
2023/03/22 06:24:00;;;;;;;;;14.50;11.50;;;;;6.42;100.00;98267.06;4889580;28;102145;-69
2023/03/22 06:26:27;;;;;;;;;17.00;16.25;;;;;6.64;100.00;98260.81;4891767;28;102116;-70
2023/03/22 06:28:54;;;;;;;;;18.00;18.00;;;;;6.84;100.00;98251.19;4883673;28;105498;-69
2023/03/22 06:31:21;;;;;;;;;15.50;12.50;;;;;7.03;100.00;98263.19;4873418;28;102357;-70
2023/03/22 06:33:48;;;;;;;;;17.50;15.75;;;;;7.17;100.00;98257.81;4885772;28;102365;-70
2023/03/22 06:36:15;;;;;;;;;14.00;12.25;;;;;7.31;100.00;98263.34;4888018;28;102124;-70
2023/03/22 06:38:42;;;;;;;;;14.25;11.50;;;;;7.41;100.00;98253.13;4892188;28;102963;-69
2023/03/22 06:41:10;;;;;;;;;12.00;8.25;;;;;7.51;100.00;98259.03;4881753;28;102634;-70
2023/03/22 06:43:37;;;;;;;;;8.00;7.25;;;;;7.50;100.00;98255.50;4884259;28;102107;-70
2023/03/22 06:46:04;;;;;;;;;12.25;11.75;;;;;7.57;100.00;98250.19;4884936;28;103158;-70
2023/03/22 06:48:31;;;;;;;;;9.25;8.50;;;;;7.49;99.84;98250.31;4883386;28;102769;-70
2023/03/22 06:50:59;;;;;;;;;19.00;17.25;;;;;7.48;100.00;98245.94;4884111;28;103119;-70
2023/03/22 06:53:26;;;;;;;;;21.00;18.75;;;;;7.52;100.00;98247.25;4881574;28;102164;-69
2023/03/22 06:55:53;;;;;;;;;23.75;20.25;;;;;7.66;99.94;98249.03;4885205;28;103003;-69
2023/03/22 06:58:21;;;;;;;;;16.75;13.75;;;;;7.72;98.41;98256.34;4884711;28;104305;-69
2023/03/22 07:00:48;;;;;;;;;20.00;14.25;;;;;7.84;99.16;98249.44;4878932;28;102305;-69
2023/03/22 07:03:15;;;;;;;;;17.00;15.00;;;;;7.95;97.84;98258.88;4874142;28;103785;-69
2023/03/22 07:05:42;;;;;;;;;22.00;16.25;;;;;8.04;98.00;98255.03;4877889;28;101979;-69
2023/03/22 07:08:09;;;;;;;;;15.25;15.25;;;;;8.11;97.19;98255.06;4879263;28;103965;-69
2023/03/22 07:10:36;;;;;;;;;14.75;12.75;;;;;8.07;96.73;98263.53;4883216;28;101951;-69
2023/03/22 07:13:04;;;;;;;;;11.50;9.50;;;;;8.17;97.45;98259.69;4856637;28;102526;-69
2023/03/22 07:15:31;;;;;;;;;19.00;18.50;;;;;8.28;97.08;98251.09;4880265;28;102400;-69
2023/03/22 07:18:00;;;;;;;;;12.75;11.25;;;;;8.36;96.55;98257.19;4884723;28;103389;-70
2023/03/22 07:20:28;;;;;;;;;8.50;7.50;;;;;8.53;96.80;98260.41;4876887;28;102282;-69
2023/03/22 07:22:55;;;;;;;;;9.25;8.50;;;;;8.68;95.34;98258.47;4888131;28;101934;-69
2023/03/22 07:25:22;;;;;;;;;13.75;10.50;;;;;8.80;93.61;98261.44;4885212;28;102344;-68
2023/03/22 07:27:49;;;;;;;;;19.50;15.75;;;;;8.81;91.85;98252.31;4885603;28;102782;-69
2023/03/22 07:30:16;;;;;;;;;14.75;13.00;;;;;8.91;92.24;98255.50;4882394;28;102395;-69
2023/03/22 07:32:43;;;;;;;;;16.00;14.25;;;;;9.06;91.98;98260.72;4884658;28;102223;-70
2023/03/22 07:35:10;;;;;;;;;14.00;8.25;;;;;9.10;88.99;98259.31;4891520;28;102529;-69
2023/03/22 07:37:37;;;;;;;;;8.75;7.50;;;;;9.16;88.85;98256.66;4883284;28;104060;-70
2023/03/22 07:40:05;;;;;;;;;8.75;7.00;;;;;9.19;89.07;98256.22;4877667;28;102265;-70
2023/03/22 07:42:33;;;;;;;;;8.25;8.00;;;;;9.29;88.98;98256.69;4888118;28;101795;-70
2023/03/22 07:45:00;;;;;;;;;6.25;5.00;;;;;9.34;88.28;98248.00;4895458;28;102430;-70
2023/03/22 07:47:27;;;;;;;;;8.00;7.50;;;;;9.43;87.92;98241.41;4890492;28;108251;-69
2023/03/22 07:50:08;;;;;;;;;8.75;8.00;;;;;9.48;87.70;98240.78;4881767;28;102388;-70
2023/03/22 07:52:35;;;;;;;;;15.00;11.25;;;;;9.54;87.88;98243.53;4883722;28;103026;-69
2023/03/22 07:55:03;;;;;;;;;10.25;8.75;;;;;9.69;87.71;98246.88;4881131;28;102092;-69
2023/03/22 07:57:30;;;;;;;;;8.25;7.00;;;;;9.89;86.73;98257.72;4885999;28;103452;-69
2023/03/22 07:59:57;;;;;;;;;8.50;8.00;;;;;10.11;86.27;98247.56;4889246;28;103366;-69
2023/03/22 08:02:25;;;;;;;;;6.75;6.75;;;;;10.26;84.44;98246.38;4886303;28;102272;-69
2023/03/22 08:04:53;;;;;;;;;9.00;8.50;;;;;10.47;83.95;98253.41;4883891;28;104917;-70
2023/03/22 08:07:24;;;;;;;;;8.00;7.75;;;;;10.57;84.08;98253.00;4879335;28;103176;-69
2023/03/22 08:09:51;;;;;;;;;15.50;14.75;;;;;10.74;83.70;98252.34;4882599;28;102403;-69
2023/03/22 08:12:18;;;;;;;;;9.25;8.50;;;;;10.99;83.63;98255.19;4883978;28;102503;-69
2023/03/22 08:14:49;;;;;;;;;13.75;12.25;;;;;11.11;82.73;98236.44;4883671;28;102364;-69
2023/03/22 08:17:17;;;;;;;;;20.25;18.50;;;;;11.10;80.96;98251.03;4876713;28;104103;-70
2023/03/22 08:19:45;;;;;;;;;21.00;17.75;;;;;11.36;81.77;98245.50;4876842;28;102082;-70
2023/03/22 08:22:12;;;;;;;;;32.75;28.25;;;;;11.17;80.78;98246.41;4884923;28;101974;-70
2023/03/22 08:24:39;;;;;;;;;42.75;35.75;;;;;11.09;79.89;98243.94;4876139;28;102397;-70
2023/03/22 08:27:06;;;;;;;;;40.75;35.75;;;;;11.00;79.56;98246.03;4870260;28;103987;-70
2023/03/22 08:29:34;;;;;;;;;32.00;27.00;;;;;11.35;80.02;98249.25;4878183;28;102348;-69
2023/03/22 08:32:02;;;;;;;;;30.25;26.00;;;;;11.63;78.34;98247.03;4890168;28;102003;-69
2023/03/22 08:34:32;;;;;;;;;18.75;15.50;;;;;11.98;77.85;98243.94;4889371;28;102235;-71
2023/03/22 08:37:03;;;;;;;;;17.25;14.75;;;;;12.18;75.45;98247.34;4876898;28;108705;-70
2023/03/22 08:39:31;;;;;;;;;6.25;6.25;;;;;12.34;72.48;98245.97;4883087;28;102363;-69
2023/03/22 08:41:58;;;;;;;;;12.00;11.25;;;;;12.55;74.26;98250.19;4868497;28;104267;-69
2023/03/22 08:44:25;;;;;;;;;12.25;11.50;;;;;12.70;73.47;98242.56;4885036;28;103128;-69
2023/03/22 08:46:53;;;;;;;;;9.00;8.50;;;;;12.79;72.09;98244.72;4880622;28;103651;-70
2023/03/22 08:49:20;;;;;;;;;7.00;6.00;;;;;12.87;72.77;98244.47;4882087;28;102365;-69
2023/03/22 08:51:47;;;;;;;;;8.50;6.00;;;;;12.98;71.34;98242.88;4884993;28;102129;-69
2023/03/22 08:54:14;;;;;;;;;10.25;8.00;;;;;12.96;71.25;98245.84;4879492;28;102024;-69
2023/03/22 08:56:41;;;;;;;;;11.50;10.50;;;;;12.77;70.92;98246.84;4876513;28;103387;-70
2023/03/22 08:59:09;;;;;;;;;10.50;10.25;;;;;12.72;71.39;98235.00;4884853;28;102414;-69
2023/03/22 09:01:36;;;;;;;;;10.75;8.00;;;;;12.76;71.80;98241.63;4880824;28;102429;-70
2023/03/22 09:04:04;;;;;;;;;5.75;5.75;;;;;12.81;72.51;98233.66;4885709;28;102403;-69
2023/03/22 09:06:32;;;;;;;;;5.25;5.00;;;;;12.95;70.52;98237.91;4872170;28;103083;-69
2023/03/22 09:09:00;;;;;;;;;8.75;7.25;;;;;12.88;69.33;98232.53;4876475;28;102695;-69
2023/03/22 09:11:27;;;;;;;;;8.00;7.00;;;;;12.99;70.93;98239.09;4876916;28;102570;-69
2023/03/22 09:13:54;;;;;;;;;12.25;10.25;;;;;13.07;70.36;98227.94;4876007;28;102372;-69
2023/03/22 09:16:21;;;;;;;;;11.00;9.00;;;;;12.88;72.64;98218.13;4885874;28;104015;-69
2023/03/22 09:18:48;;;;;;;;;11.50;10.00;;;;;12.87;70.12;98228.19;4870721;28;102126;-70
2023/03/22 09:21:15;;;;;;;;;11.50;9.00;;;;;13.04;72.17;98220.25;4880955;28;102638;-69
2023/03/22 09:23:46;;;;;;;;;11.75;11.00;;;;;13.11;69.25;98215.59;4871507;28;102213;-69
2023/03/22 09:26:13;;;;;;;;;11.25;8.75;;;;;13.16;70.65;98204.91;4876751;28;103066;-70
2023/03/22 09:28:41;;;;;;;;;12.00;8.75;;;;;13.29;69.63;98210.16;4878182;28;102418;-70
2023/03/22 09:31:09;;;;;;;;;7.75;5.75;;;;;13.44;69.26;98200.81;4879577;28;101960;-69
2023/03/22 09:33:37;;;;;;;;;7.75;6.00;;;;;13.49;67.52;98206.38;4888457;28;102278;-70
2023/03/22 09:36:05;;;;;;;;;4.00;4.00;;;;;13.62;65.76;98206.19;4886908;28;108853;-70
2023/03/22 09:38:34;;;;;;;;;5.75;5.00;;;;;13.76;65.12;98210.41;4881009;28;102145;-70
2023/03/22 09:41:11;;;;;;;;;5.00;5.00;;;;;13.69;66.01;98187.91;4884919;28;102329;-70
2023/03/22 09:44:07;;;;;;;;;8.00;6.75;;;;;13.88;65.04;98202.28;4871600;28;103882;-70
2023/03/22 09:46:46;;;;;;;;;7.75;7.00;;;;;14.00;65.46;98198.53;4870216;28;103973;-70
2023/03/22 09:49:18;;;;;;;;;6.75;6.00;;;;;14.07;66.83;98201.97;4871953;28;102285;-70
2023/03/22 09:51:53;;;;;;;;;14.75;12.00;;;;;14.08;66.06;98198.19;4884235;28;102133;-70
2023/03/22 09:54:41;;;;;;;;;7.50;7.50;;;;;14.18;64.52;98200.34;4876337;28;102485;-70
2023/03/22 09:57:31;;;;;;;;;9.00;8.00;;;;;14.26;64.49;98200.00;4873077;28;108898;-69
2023/03/22 10:00:20;;;;;;;;;12.25;9.00;;;;;14.15;64.43;98203.53;4884011;28;102506;-70
2023/03/22 10:02:59;;;;;;;;;10.25;9.00;;;;;14.29;64.50;98200.38;4878808;28;102222;-71
2023/03/22 10:05:49;;;;;;;;;8.75;8.75;;;;;14.53;63.00;98200.41;4881991;28;102430;-70
2023/03/22 10:08:34;;;;;;;;;8.00;6.00;;;;;14.64;62.38;98205.84;4881173;28;108662;-70
2023/03/22 10:11:23;;;;;;;;;19.75;15.75;;;;;14.32;63.54;98193.59;4871810;28;102473;-70
2023/03/22 10:14:04;;;;;;;;;17.00;15.75;;;;;14.29;63.78;98200.38;4875623;28;101843;-71
2023/03/22 10:16:34;;;;;;;;;17.25;15.25;;;;;14.29;63.19;98196.81;4879767;28;102648;-70
2023/03/22 10:19:19;;;;;;;;;21.00;17.00;;;;;14.27;62.65;98183.44;4884859;28;104127;-70
2023/03/22 10:21:50;;;;;;;;;19.75;18.00;;;;;14.36;64.78;98180.44;4885024;28;102441;-69
2023/03/22 10:24:23;;;;;;;;;13.00;11.00;;;;;14.44;62.37;98186.34;4883155;28;102274;-71
2023/03/22 10:26:50;;;;;;;;;19.25;19.00;;;;;14.16;62.96;98165.22;4882643;28;102507;-70
2023/03/22 10:29:34;;;;;;;;;34.25;32.00;;;;;13.85;65.49;98181.84;4884122;28;103989;-69
2023/03/22 10:32:17;;;;;;;;;31.50;24.75;;;;;14.08;65.71;98176.44;4889240;28;102432;-70
2023/03/22 10:34:45;;;;;;;;;30.00;28.50;;;;;14.15;66.37;98171.72;4881767;28;103312;-69
2023/03/22 10:37:20;;;;;;;;;20.00;19.00;;;;;14.26;64.94;98175.53;4884964;28;102240;-70
2023/03/22 10:39:51;;;;;;;;;23.50;20.75;;;;;14.55;65.18;98160.19;4877388;28;103660;-71
2023/03/22 10:42:25;;;;;;;;;20.50;18.25;;;;;14.87;63.02;98175.06;4884810;28;102340;-71
2023/03/22 10:45:00;;;;;;;;;18.25;16.75;;;;;15.05;63.58;98171.38;4882533;28;101998;-70
2023/03/22 10:47:40;;;;;;;;;26.50;24.50;;;;;14.96;62.17;98178.25;4886395;28;102299;-70
2023/03/22 10:50:25;;;;;;;;;27.25;24.25;;;;;14.93;62.90;98171.41;4883092;28;108441;-70
2023/03/22 10:53:12;;;;;;;;;24.50;22.25;;;;;14.83;62.74;98165.72;4881139;28;103009;-70
2023/03/22 10:55:42;;;;;;;;;33.50;28.00;;;;;14.79;63.35;98156.38;4884303;28;102464;-70
2023/03/22 10:58:16;;;;;;;;;29.75;27.50;;;;;14.90;62.20;98152.84;4894212;28;102280;-71
2023/03/22 11:00:47;;;;;;;;;38.25;34.25;;;;;14.57;64.13;98156.19;4873006;28;108687;-71
2023/03/22 11:03:41;;;;;;;;;35.75;31.50;;;;;14.85;63.13;98160.88;4874705;28;102547;-70
2023/03/22 11:06:12;;;;;;;;;26.50;23.00;;;;;15.19;64.42;98159.97;4880506;28;102473;-70
2023/03/22 11:08:49;;;;;;;;;23.00;20.25;;;;;15.41;61.42;98151.13;4889165;28;102276;-69
2023/03/22 11:11:22;;;;;;;;;26.00;22.75;;;;;15.39;62.27;98145.13;4871624;28;108747;-71
2023/03/22 11:13:55;;;;;;;;;24.75;22.00;;;;;15.52;62.21;98151.13;4880553;28;102014;-70
2023/03/22 11:16:22;;;;;;;;;25.75;22.25;;;;;15.65;62.71;98149.16;4882608;28;102408;-71
2023/03/22 11:18:50;;;;;;;;;21.00;19.50;;;;;15.72;61.74;98152.56;4885861;28;102549;-71
2023/03/22 11:21:22;;;;;;;;;26.25;24.75;;;;;15.74;61.93;98143.09;4881500;28;104002;-71
2023/03/22 11:23:56;;;;;;;;;15.75;15.75;;;;;15.93;62.90;98136.34;4885172;28;102026;-71
2023/03/22 11:26:34;;;;;;;;;33.00;25.25;;;;;15.71;60.29;98120.94;4885967;28;102354;-71
2023/03/22 11:29:15;;;;;;;;;19.00;15.50;;;;;15.78;60.86;98133.34;4883871;28;102976;-71
2023/03/22 11:31:57;;;;;;;;;16.50;14.50;;;;;15.81;59.69;98126.56;4876666;28;108679;-70
2023/03/22 11:34:28;;;;;;;;;13.00;11.75;;;;;15.90;61.35;98131.34;4879142;28;102278;-70